Time;durP1;ratioP1;P1;durP2;ratioP2;P2;SDS_P1;SDS_P2;PMS_P1;PMS_P2;Temp;Humidity;BMP_temperature;BMP_pressure;BME280_temperature;BME280_humidity;BME280_pressure;Samples;Min_cycle;Max_cycle;Signal;HPM_P1;HPM_P2
2022/04/24 00:01:57;;;;;;;0.10;0.10;;;;;;;;;;5073975;28;20573;-89
2022/04/24 00:04:24;;;;;;;0.10;0.10;;;;;;;;;;5075392;28;20031;-87
2022/04/24 00:06:53;;;;;;;0.10;0.10;;;;;;;;;;5074301;28;20036;-84
2022/04/24 00:09:22;;;;;;;0.10;0.10;;;;;;;;;;5075332;28;20020;-85
2022/04/24 00:11:48;;;;;;;0.10;0.10;;;;;;;;;;5074676;28;20108;-84
2022/04/24 00:14:17;;;;;;;0.10;0.10;;;;;;;;;;5073887;28;20021;-88
2022/04/24 00:16:44;;;;;;;0.10;0.10;;;;;;;;;;5075234;28;20025;-88
2022/04/24 00:19:10;;;;;;;0.10;0.10;;;;;;;;;;5074031;28;20021;-85
2022/04/24 00:21:36;;;;;;;0.10;0.10;;;;;;;;;;5074082;28;20108;-86
2022/04/24 00:24:02;;;;;;;0.10;0.10;;;;;;;;;;5075703;28;20105;-87
2022/04/24 00:26:29;;;;;;;0.10;0.10;;;;;;;;;;5074211;28;20028;-87
2022/04/24 00:28:55;;;;;;;0.10;0.10;;;;;;;;;;5073855;28;20035;-86
2022/04/24 00:31:21;;;;;;;0.10;0.10;;;;;;;;;;5075196;28;20035;-86
2022/04/24 00:33:47;;;;;;;0.10;0.10;;;;;;;;;;5073574;28;20024;-86
2022/04/24 00:36:13;;;;;;;0.10;0.10;;;;;;;;;;5073791;28;20032;-86
2022/04/24 00:38:39;;;;;;;0.10;0.10;;;;;;;;;;5073396;28;20115;-84
2022/04/24 00:41:06;;;;;;;0.10;0.10;;;;;;;;;;5073409;28;20076;-86
2022/04/24 00:43:32;;;;;;;0.10;0.10;;;;;;;;;;5073922;28;20021;-87
2022/04/24 00:46:13;;;;;;;0.10;0.10;;;;;;;;;;5073637;28;20064;-85
2022/04/24 00:48:40;;;;;;;0.10;0.10;;;;;;;;;;5074427;28;20102;-83
2022/04/24 00:51:06;;;;;;;0.10;0.10;;;;;;;;;;5073663;28;20020;-88
2022/04/24 00:53:32;;;;;;;0.10;0.10;;;;;;;;;;5073682;28;20028;-89
2022/04/24 00:55:58;;;;;;;0.10;0.10;;;;;;;;;;5075114;28;20060;-88
2022/04/24 00:58:25;;;;;;;0.10;0.10;;;;;;;;;;5073703;28;20095;-88
2022/04/24 01:00:52;;;;;;;0.10;0.10;;;;;;;;;;5074430;28;20032;-88
2022/04/24 01:03:18;;;;;;;0.10;0.10;;;;;;;;;;5073232;28;20024;-86
2022/04/24 01:05:44;;;;;;;0.10;0.10;;;;;;;;;;5073239;28;20051;-88
2022/04/24 01:08:10;;;;;;;0.10;0.10;;;;;;;;;;5074528;28;20477;-88
2022/04/24 01:10:39;;;;;;;0.10;0.10;;;;;;;;;;5074165;28;20110;-87
2022/04/24 01:13:05;;;;;;;0.10;0.10;;;;;;;;;;5073399;28;20044;-87
2022/04/24 01:15:32;;;;;;;0.10;0.10;;;;;;;;;;5073442;28;20021;-85
2022/04/24 01:17:58;;;;;;;0.10;0.10;;;;;;;;;;5074726;28;20025;-89
2022/04/24 01:20:24;;;;;;;0.10;0.10;;;;;;;;;;5074179;28;20089;-88
2022/04/24 01:22:51;;;;;;;0.10;0.10;;;;;;;;;;5073022;28;20480;-86
2022/04/24 01:25:17;;;;;;;0.10;0.10;;;;;;;;;;5074265;28;20468;-90
2022/04/24 01:27:43;;;;;;;0.10;0.10;;;;;;;;;;5073917;28;20028;-90
2022/04/24 01:30:09;;;;;;;0.10;0.10;;;;;;;;;;5072964;28;20031;-86
2022/04/24 01:32:35;;;;;;;0.10;0.10;;;;;;;;;;5073562;28;20028;-88
2022/04/24 01:35:02;;;;;;;0.10;0.10;;;;;;;;;;5073308;28;20081;-86
2022/04/24 01:37:28;;;;;;;0.10;0.10;;;;;;;;;;5073108;28;20031;-89
2022/04/24 01:39:54;;;;;;;0.10;0.10;;;;;;;;;;5073132;28;20028;-90
2022/04/24 01:42:21;;;;;;;0.10;0.10;;;;;;;;;;5083095;28;20100;-88
2022/04/24 01:44:47;;;;;;;0.10;0.10;;;;;;;;;;5079856;28;20035;-87
2022/04/24 01:47:13;;;;;;;0.10;0.10;;;;;;;;;;5074327;28;20037;-84
2022/04/24 01:49:39;;;;;;;0.10;0.10;;;;;;;;;;5072286;28;20096;-86
2022/04/24 01:52:08;;;;;;;0.10;0.10;;;;;;;;;;5072537;28;20039;-87
2022/04/24 01:54:34;;;;;;;0.10;0.10;;;;;;;;;;5071563;28;20388;-86
2022/04/24 01:57:00;;;;;;;0.10;0.10;;;;;;;;;;5072639;28;20085;-85
2022/04/24 01:59:26;;;;;;;0.10;0.10;;;;;;;;;;5072367;28;20431;-85
2022/04/24 02:01:52;;;;;;;0.10;0.10;;;;;;;;;;5071732;28;20036;-87
2022/04/24 02:04:22;;;;;;;0.17;0.17;;;;;;;;;;5073350;28;20029;-85
2022/04/24 02:06:49;;;;;;;0.10;0.10;;;;;;;;;;5071880;28;20119;-86
2022/04/24 02:09:15;;;;;;;0.10;0.10;;;;;;;;;;5071993;28;20560;-86
2022/04/24 02:11:41;;;;;;;0.10;0.10;;;;;;;;;;5072954;28;20056;-87
2022/04/24 02:14:07;;;;;;;0.10;0.10;;;;;;;;;;5071756;28;20365;-84
2022/04/24 02:16:33;;;;;;;0.10;0.10;;;;;;;;;;5071588;28;20035;-78
2022/04/24 02:18:59;;;;;;;0.10;0.10;;;;;;;;;;5071851;28;20024;-88
2022/04/24 02:21:27;;;;;;;0.10;0.10;;;;;;;;;;5071682;28;20040;-88
2022/04/24 02:23:54;;;;;;;0.10;0.10;;;;;;;;;;5071683;28;20068;-86
2022/04/24 02:26:20;;;;;;;0.10;0.10;;;;;;;;;;5072928;28;20472;-84
2022/04/24 02:28:46;;;;;;;0.10;0.10;;;;;;;;;;5071818;28;20523;-89
2022/04/24 02:31:12;;;;;;;0.10;0.10;;;;;;;;;;5072959;28;20104;-88
2022/04/24 02:33:38;;;;;;;0.20;0.20;;;;;;;;;;5071558;28;20033;-89
2022/04/24 02:36:04;;;;;;;0.10;0.10;;;;;;;;;;5072876;28;20025;-89
2022/04/24 02:38:30;;;;;;;0.10;0.10;;;;;;;;;;5071930;28;20028;-84
2022/04/24 02:40:56;;;;;;;0.10;0.10;;;;;;;;;;5071149;28;20024;-89
2022/04/24 02:43:22;;;;;;;0.10;0.10;;;;;;;;;;5072638;28;20051;-89
2022/04/24 02:45:48;;;;;;;0.10;0.10;;;;;;;;;;5071221;28;20020;-89
2022/04/24 02:48:14;;;;;;;0.10;0.10;;;;;;;;;;5072491;28;20123;-89
2022/04/24 02:50:40;;;;;;;0.10;0.10;;;;;;;;;;5071227;28;20104;-87
2022/04/24 02:53:07;;;;;;;0.10;0.10;;;;;;;;;;5071206;28;20509;-88
2022/04/24 02:55:33;;;;;;;0.10;0.10;;;;;;;;;;5072230;28;20016;-85
2022/04/24 02:57:59;;;;;;;0.10;0.10;;;;;;;;;;5072720;28;20035;-90
2022/04/24 03:00:39;;;;;;;0.17;0.17;;;;;;;;;;5071130;28;20115;-90
2022/04/24 03:03:06;;;;;;;0.10;0.10;;;;;;;;;;5072797;28;20029;-91
2022/04/24 03:05:32;;;;;;;0.10;0.10;;;;;;;;;;5071805;28;20070;-90
2022/04/24 03:07:58;;;;;;;0.10;0.10;;;;;;;;;;5072507;28;20503;-88
2022/04/24 03:10:24;;;;;;;0.10;0.10;;;;;;;;;;5072305;28;20025;-90
2022/04/24 03:12:50;;;;;;;0.10;0.10;;;;;;;;;;5071011;28;20028;-90
2022/04/24 03:15:16;;;;;;;0.10;0.10;;;;;;;;;;5072403;28;20021;-91
2022/04/24 03:17:43;;;;;;;0.10;0.10;;;;;;;;;;5072029;28;20032;-88
2022/04/24 03:20:10;;;;;;;0.10;0.10;;;;;;;;;;5070977;28;20024;-90
2022/04/24 03:22:36;;;;;;;0.10;0.10;;;;;;;;;;5071140;28;20051;-90
2022/04/24 03:25:03;;;;;;;0.10;0.10;;;;;;;;;;5071678;28;20032;-86
2022/04/24 03:27:29;;;;;;;0.10;0.10;;;;;;;;;;5071087;28;20037;-90
2022/04/24 03:29:55;;;;;;;0.10;0.10;;;;;;;;;;5071826;28;20020;-90
2022/04/24 03:32:21;;;;;;;0.10;0.10;;;;;;;;;;5071852;28;20032;-88
2022/04/24 03:34:47;;;;;;;0.10;0.10;;;;;;;;;;5072137;28;20020;-89
2022/04/24 03:37:13;;;;;;;0.10;0.10;;;;;;;;;;5070969;28;20078;-90
2022/04/24 03:39:39;;;;;;;0.10;0.10;;;;;;;;;;5071900;28;20019;-90
2022/04/24 03:42:06;;;;;;;0.10;0.10;;;;;;;;;;5070844;28;20094;-89
2022/04/24 03:44:33;;;;;;;0.10;0.10;;;;;;;;;;5072535;28;20074;-87
2022/04/24 03:46:59;;;;;;;0.10;0.10;;;;;;;;;;5072114;28;20100;-85
2022/04/24 03:49:26;;;;;;;0.15;0.15;;;;;;;;;;5070244;28;20025;-85
2022/04/24 03:51:52;;;;;;;0.10;0.10;;;;;;;;;;5071887;28;20035;-91
2022/04/24 03:54:18;;;;;;;0.10;0.10;;;;;;;;;;5070661;28;20025;-87
2022/04/24 03:56:44;;;;;;;0.10;0.10;;;;;;;;;;5071834;28;20028;-83
2022/04/24 03:59:10;;;;;;;0.10;0.10;;;;;;;;;;5070360;28;20099;-87
2022/04/24 04:01:36;;;;;;;0.10;0.10;;;;;;;;;;5070272;28;20037;-85
2022/04/24 04:04:02;;;;;;;0.10;0.10;;;;;;;;;;5072051;28;20027;-82
2022/04/24 04:06:28;;;;;;;0.10;0.10;;;;;;;;;;5070094;28;20032;-84
2022/04/24 04:08:54;;;;;;;0.13;0.13;;;;;;;;;;5070504;28;20021;-86
2022/04/24 04:11:20;;;;;;;0.10;0.10;;;;;;;;;;5070223;28;20029;-81
2022/04/24 04:13:46;;;;;;;0.10;0.10;;;;;;;;;;5071591;28;20483;-85
2022/04/24 04:16:12;;;;;;;0.13;0.13;;;;;;;;;;5072091;28;20433;-85
2022/04/24 04:18:38;;;;;;;0.10;0.10;;;;;;;;;;5075147;28;20104;-85
2022/04/24 04:21:04;;;;;;;0.10;0.10;;;;;;;;;;5075311;28;20071;-87
2022/04/24 04:23:31;;;;;;;0.10;0.10;;;;;;;;;;5074122;28;20029;-87
2022/04/24 04:25:57;;;;;;;0.10;0.10;;;;;;;;;;5075187;28;20032;-87
2022/04/24 04:28:23;;;;;;;0.10;0.10;;;;;;;;;;5073796;28;20120;-84
2022/04/24 04:30:49;;;;;;;0.10;0.10;;;;;;;;;;5074187;28;20098;-83
2022/04/24 04:33:15;;;;;;;0.10;0.10;;;;;;;;;;5073822;28;20029;-80
2022/04/24 04:35:41;;;;;;;0.10;0.10;;;;;;;;;;5073710;28;20020;-86
2022/04/24 04:38:07;;;;;;;0.10;0.10;;;;;;;;;;5073658;28;20031;-86
2022/04/24 04:40:34;;;;;;;0.10;0.10;;;;;;;;;;5073439;28;20027;-82
2022/04/24 04:43:00;;;;;;;0.10;0.10;;;;;;;;;;5073967;28;20025;-85
2022/04/24 04:45:26;;;;;;;0.10;0.10;;;;;;;;;;5073527;28;20052;-84
2022/04/24 04:47:52;;;;;;;0.10;0.10;;;;;;;;;;5073430;28;20036;-86
2022/04/24 04:50:18;;;;;;;0.10;0.10;;;;;;;;;;5073205;28;20039;-86
2022/04/24 04:52:45;;;;;;;0.10;0.10;;;;;;;;;;5073466;28;20066;-90
2022/04/24 04:55:11;;;;;;;0.10;0.10;;;;;;;;;;5073697;28;20024;-91
2022/04/24 04:57:37;;;;;;;0.10;0.10;;;;;;;;;;5073317;28;20103;-89
2022/04/24 05:00:05;;;;;;;0.10;0.10;;;;;;;;;;5073551;28;20033;-84
2022/04/24 05:02:31;;;;;;;0.10;0.10;;;;;;;;;;5073197;28;20036;-85
2022/04/24 05:05:00;;;;;;;0.10;0.10;;;;;;;;;;5074161;28;20059;-87
2022/04/24 05:07:26;;;;;;;0.10;0.10;;;;;;;;;;5075840;28;20036;-85
2022/04/24 05:09:52;;;;;;;0.10;0.10;;;;;;;;;;5074509;28;20029;-91
2022/04/24 05:12:18;;;;;;;0.10;0.10;;;;;;;;;;5078088;28;20024;-87
2022/04/24 05:14:44;;;;;;;0.10;0.10;;;;;;;;;;5076046;28;20372;-89
2022/04/24 05:17:10;;;;;;;0.10;0.10;;;;;;;;;;5073761;28;20495;-83
2022/04/24 05:19:36;;;;;;;0.13;0.13;;;;;;;;;;5074062;28;20033;-85
2022/04/24 05:22:02;;;;;;;0.20;0.20;;;;;;;;;;5092226;28;20039;-88
2022/04/24 05:24:28;;;;;;;0.10;0.10;;;;;;;;;;5079628;28;20547;-87
2022/04/24 05:26:54;;;;;;;0.10;0.10;;;;;;;;;;5085393;28;20024;-87
2022/04/24 05:29:20;;;;;;;0.10;0.10;;;;;;;;;;5080051;28;20116;-85
2022/04/24 05:31:46;;;;;;;0.10;0.10;;;;;;;;;;5087703;28;20020;-87
2022/04/24 05:34:12;;;;;;;0.20;0.20;;;;;;;;;;5079327;28;20119;-92
2022/04/24 05:36:38;;;;;;;0.10;0.10;;;;;;;;;;5092635;28;20119;-90
2022/04/24 05:39:05;;;;;;;0.10;0.10;;;;;;;;;;5087778;28;20036;-93
2022/04/24 05:41:31;;;;;;;0.10;0.10;;;;;;;;;;5072795;28;20036;-93
2022/04/24 05:43:57;;;;;;;0.10;0.10;;;;;;;;;;5075321;28;20032;-91
2022/04/24 05:46:23;;;;;;;0.10;0.10;;;;;;;;;;5074205;28;20024;-90
2022/04/24 05:48:49;;;;;;;0.13;0.13;;;;;;;;;;5076191;28;20028;-87
2022/04/24 05:51:15;;;;;;;0.10;0.10;;;;;;;;;;5084034;28;20024;-76
2022/04/24 05:53:41;;;;;;;0.10;0.10;;;;;;;;;;5078656;28;20032;-92
2022/04/24 05:56:07;;;;;;;0.10;0.10;;;;;;;;;;5091199;28;20074;-86
2022/04/24 05:58:33;;;;;;;0.10;0.10;;;;;;;;;;5086911;28;20061;-86
2022/04/24 06:00:59;;;;;;;0.10;0.10;;;;;;;;;;5078642;28;20036;-87
2022/04/24 06:03:25;;;;;;;0.10;0.10;;;;;;;;;;5091636;28;20032;-81
2022/04/24 06:05:51;;;;;;;0.20;0.20;;;;;;;;;;5091776;28;20081;-86
2022/04/24 06:08:17;;;;;;;0.10;0.10;;;;;;;;;;5091348;28;20028;-83
2022/04/24 06:10:43;;;;;;;0.10;0.10;;;;;;;;;;5091558;28;20032;-80
2022/04/24 06:13:09;;;;;;;0.10;0.10;;;;;;;;;;5091398;28;20024;-81
2022/04/24 06:15:35;;;;;;;0.10;0.10;;;;;;;;;;5091260;28;20089;-83
2022/04/24 06:18:01;;;;;;;0.10;0.10;;;;;;;;;;5091664;28;20483;-87
2022/04/24 06:20:28;;;;;;;0.10;0.10;;;;;;;;;;5091245;28;20032;-84
2022/04/24 06:22:55;;;;;;;0.10;0.10;;;;;;;;;;5091720;28;20031;-81
2022/04/24 06:25:26;;;;;;;0.10;0.10;;;;;;;;;;5091079;28;20027;-82
2022/04/24 06:27:52;;;;;;;0.10;0.10;;;;;;;;;;5090928;28;20027;-79
2022/04/24 06:30:19;;;;;;;0.10;0.10;;;;;;;;;;5090886;28;20093;-84
2022/04/24 06:32:45;;;;;;;0.10;0.10;;;;;;;;;;5090891;28;20069;-84
2022/04/24 06:35:14;;;;;;;0.10;0.10;;;;;;;;;;5090829;28;20035;-81
2022/04/24 06:37:40;;;;;;;0.15;0.15;;;;;;;;;;5092417;28;20035;-84
2022/04/24 06:40:08;;;;;;;0.10;0.10;;;;;;;;;;5090976;28;20510;-79
2022/04/24 06:42:47;;;;;;;0.10;0.10;;;;;;;;;;5091662;28;20036;-84
2022/04/24 06:45:13;;;;;;;0.10;0.10;;;;;;;;;;5091254;28;20016;-84
2022/04/24 06:47:39;;;;;;;0.10;0.10;;;;;;;;;;5090758;28;20043;-80
2022/04/24 06:50:05;;;;;;;0.10;0.10;;;;;;;;;;5091260;28;20230;-85
2022/04/24 06:52:31;;;;;;;0.13;0.13;;;;;;;;;;5090936;28;20468;-85
2022/04/24 06:55:00;;;;;;;0.10;0.10;;;;;;;;;;5090947;28;20043;-82
2022/04/24 06:57:26;;;;;;;0.10;0.10;;;;;;;;;;5090768;28;20020;-86
2022/04/24 06:59:52;;;;;;;0.10;0.10;;;;;;;;;;5090785;28;20024;-85
2022/04/24 07:02:18;;;;;;;0.10;0.10;;;;;;;;;;5090612;28;20039;-85
2022/04/24 07:04:44;;;;;;;0.20;0.20;;;;;;;;;;5090869;28;20479;-82
2022/04/24 07:07:10;;;;;;;5.03;3.70;;;;;;;;;;5091744;28;20081;-82
2022/04/24 07:09:36;;;;;;;0.10;0.10;;;;;;;;;;5093862;28;20448;-85
2022/04/24 07:12:02;;;;;;;0.20;0.20;;;;;;;;;;5094745;28;20028;-80
2022/04/24 07:14:28;;;;;;;0.10;0.10;;;;;;;;;;5094651;28;20387;-82
2022/04/24 07:16:54;;;;;;;0.10;0.10;;;;;;;;;;5090837;28;20016;-80
2022/04/24 07:19:20;;;;;;;0.10;0.10;;;;;;;;;;5090530;28;20050;-86
2022/04/24 07:21:48;;;;;;;0.10;0.10;;;;;;;;;;5090762;28;20123;-83
2022/04/24 07:24:14;;;;;;;0.10;0.10;;;;;;;;;;5090696;28;20035;-87
2022/04/24 07:26:40;;;;;;;0.10;0.10;;;;;;;;;;5090710;28;20027;-85
2022/04/24 07:29:06;;;;;;;0.10;0.10;;;;;;;;;;5091169;28;20025;-84
2022/04/24 07:31:32;;;;;;;0.20;0.20;;;;;;;;;;5090238;28;20024;-85
2022/04/24 07:33:58;;;;;;;1.05;1.05;;;;;;;;;;5090670;28;20040;-81
2022/04/24 07:36:25;;;;;;;0.10;0.10;;;;;;;;;;5091462;28;20025;-83
2022/04/24 07:38:51;;;;;;;0.10;0.10;;;;;;;;;;5090460;28;20028;-85
2022/04/24 07:41:17;;;;;;;0.10;0.10;;;;;;;;;;5089774;28;20020;-86
2022/04/24 07:43:48;;;;;;;0.10;0.10;;;;;;;;;;5090092;28;20035;-83
2022/04/24 07:46:17;;;;;;;0.10;0.10;;;;;;;;;;5091433;28;20052;-81
2022/04/24 07:48:44;;;;;;;0.17;0.17;;;;;;;;;;5090315;28;20549;-80
2022/04/24 07:51:10;;;;;;;0.10;0.10;;;;;;;;;;5091272;28;20031;-88
2022/04/24 07:53:40;;;;;;;0.82;0.82;;;;;;;;;;5094030;28;20028;-82
2022/04/24 07:56:06;;;;;;;0.10;0.10;;;;;;;;;;5094688;28;20024;-82
2022/04/24 07:58:32;;;;;;;0.13;0.13;;;;;;;;;;5077314;28;20550;-82
2022/04/24 08:00:58;;;;;;;0.10;0.10;;;;;;;;;;5073737;28;20177;-83
2022/04/24 08:03:24;;;;;;;0.10;0.10;;;;;;;;;;5073708;28;20507;-80
2022/04/24 08:05:51;;;;;;;0.10;0.10;;;;;;;;;;5073966;28;20056;-83
2022/04/24 08:08:20;;;;;;;3.00;2.90;;;;;;;;;;5073654;28;20111;-84
2022/04/24 08:10:48;;;;;;;0.10;0.10;;;;;;;;;;5073740;28;20541;-81
2022/04/24 08:13:14;;;;;;;0.10;0.10;;;;;;;;;;5074335;28;20033;-86
2022/04/24 08:15:40;;;;;;;0.10;0.10;;;;;;;;;;5073885;28;20546;-80
2022/04/24 08:18:07;;;;;;;0.10;0.10;;;;;;;;;;5075334;28;20031;-81
2022/04/24 08:20:34;;;;;;;0.10;0.10;;;;;;;;;;5073359;28;20166;-79
2022/04/24 08:23:01;;;;;;;0.10;0.10;;;;;;;;;;5072976;28;20028;-77
2022/04/24 08:25:28;;;;;;;0.10;0.10;;;;;;;;;;5073032;28;20042;-80
2022/04/24 08:27:55;;;;;;;0.10;0.10;;;;;;;;;;5072944;28;20456;-78
2022/04/24 08:30:22;;;;;;;0.10;0.10;;;;;;;;;;5072800;28;20111;-80
2022/04/24 08:32:48;;;;;;;0.10;0.10;;;;;;;;;;5073015;28;20539;-80
2022/04/24 08:35:15;;;;;;;0.10;0.10;;;;;;;;;;5074203;28;20017;-80
2022/04/24 08:37:42;;;;;;;0.10;0.10;;;;;;;;;;5073017;28;20040;-81
2022/04/24 08:40:09;;;;;;;0.10;0.10;;;;;;;;;;5073389;28;20115;-82
2022/04/24 08:42:36;;;;;;;0.10;0.10;;;;;;;;;;5072420;28;20040;-83
2022/04/24 08:45:02;;;;;;;0.10;0.10;;;;;;;;;;5073147;28;20048;-81
2022/04/24 08:47:29;;;;;;;0.10;0.10;;;;;;;;;;5071893;28;20042;-85
2022/04/24 08:49:55;;;;;;;0.10;0.10;;;;;;;;;;5071761;28;20012;-80
2022/04/24 08:52:22;;;;;;;0.10;0.10;;;;;;;;;;5070931;28;20017;-80
2022/04/24 08:54:49;;;;;;;0.10;0.10;;;;;;;;;;5071560;28;20024;-81
2022/04/24 08:57:15;;;;;;;0.10;0.10;;;;;;;;;;5072346;28;20692;-79
2022/04/24 08:59:42;;;;;;;0.10;0.10;;;;;;;;;;5072415;28;20119;-79
2022/04/24 09:02:11;;;;;;;0.10;0.10;;;;;;;;;;5071844;28;20040;-80
2022/04/24 09:04:37;;;;;;;3.85;3.13;;;;;;;;;;5071659;28;20017;-81
2022/04/24 09:07:04;;;;;;;0.10;0.10;;;;;;;;;;5072283;28;20127;-80
2022/04/24 09:09:32;;;;;;;0.10;0.10;;;;;;;;;;5071936;28;20051;-83
2022/04/24 09:12:11;;;;;;;0.10;0.10;;;;;;;;;;5072250;28;20032;-81
2022/04/24 09:14:37;;;;;;;0.32;0.32;;;;;;;;;;5070813;28;20508;-78
2022/04/24 09:17:07;;;;;;;0.10;0.10;;;;;;;;;;5072044;28;20036;-78
2022/04/24 09:19:35;;;;;;;0.10;0.10;;;;;;;;;;5072032;28;20027;-79
2022/04/24 09:22:03;;;;;;;0.00;0.00;;;;;;;;;;5072049;28;20123;-80
2022/04/24 09:24:42;;;;;;;0.10;0.10;;;;;;;;;;5071590;28;20028;-78
2022/04/24 09:27:08;;;;;;;0.10;0.10;;;;;;;;;;5072001;28;20020;-76
2022/04/24 09:29:34;;;;;;;0.10;0.10;;;;;;;;;;5071657;28;20407;-77
2022/04/24 09:32:01;;;;;;;0.00;0.00;;;;;;;;;;5071764;28;20399;-77
2022/04/24 09:34:31;;;;;;;0.10;0.10;;;;;;;;;;5071253;28;20441;-76
2022/04/24 09:37:04;;;;;;;0.10;0.10;;;;;;;;;;5071188;28;20454;-76
2022/04/24 09:39:31;;;;;;;0.10;0.10;;;;;;;;;;5072037;28;20111;-76
2022/04/24 09:42:10;;;;;;;0.10;0.10;;;;;;;;;;5070477;28;20035;-76
2022/04/24 09:44:54;;;;;;;1.42;1.42;;;;;;;;;;5069322;28;20024;-77
2022/04/24 09:47:25;;;;;;;0.10;0.10;;;;;;;;;;5069451;28;20119;-76
2022/04/24 09:49:51;;;;;;;0.10;0.10;;;;;;;;;;5069964;28;20056;-77
2022/04/24 09:52:19;;;;;;;0.10;0.10;;;;;;;;;;5070451;28;20093;-76
2022/04/24 09:54:46;;;;;;;0.10;0.10;;;;;;;;;;5070613;28;20028;-77
2022/04/24 09:57:15;;;;;;;0.10;0.10;;;;;;;;;;5070555;28;20031;-77
2022/04/24 09:59:43;;;;;;;0.10;0.10;;;;;;;;;;5069772;28;20020;-76
2022/04/24 10:02:10;;;;;;;0.20;0.20;;;;;;;;;;5067145;28;20094;-76
2022/04/24 10:04:38;;;;;;;0.10;0.10;;;;;;;;;;5070543;28;20074;-80
2022/04/24 10:07:05;;;;;;;0.10;0.10;;;;;;;;;;5070263;28;20039;-79
2022/04/24 10:09:33;;;;;;;0.13;0.13;;;;;;;;;;5071368;28;20027;-76
2022/04/24 10:12:02;;;;;;;0.10;0.10;;;;;;;;;;5070279;28;20032;-77
2022/04/24 10:14:28;;;;;;;0.10;0.10;;;;;;;;;;5068319;28;20021;-78
2022/04/24 10:17:12;;;;;;;0.10;0.10;;;;;;;;;;5070258;28;20439;-76
2022/04/24 10:19:38;;;;;;;0.10;0.10;;;;;;;;;;5069087;28;20082;-78
2022/04/24 10:22:07;;;;;;;0.10;0.10;;;;;;;;;;5077079;28;20028;-78
2022/04/24 10:24:43;;;;;;;0.10;0.10;;;;;;;;;;5079712;28;20024;-76
2022/04/24 10:27:11;;;;;;;0.10;0.10;;;;;;;;;;5088168;28;20042;-77
2022/04/24 10:29:48;;;;;;;0.10;0.10;;;;;;;;;;5073274;28;20103;-77
2022/04/24 10:32:24;;;;;;;0.10;0.10;;;;;;;;;;5071700;28;20056;-77
2022/04/24 10:34:50;;;;;;;0.10;0.10;;;;;;;;;;5083385;28;20116;-76
2022/04/24 10:37:24;;;;;;;0.10;0.10;;;;;;;;;;5072875;28;20120;-75
2022/04/24 10:39:55;;;;;;;0.15;0.15;;;;;;;;;;5084846;28;20028;-76
2022/04/24 10:42:29;;;;;;;0.10;0.10;;;;;;;;;;5080284;28;20077;-76
2022/04/24 10:44:55;;;;;;;0.20;0.20;;;;;;;;;;5075407;28;20213;-75
2022/04/24 10:47:21;;;;;;;0.10;0.10;;;;;;;;;;5087182;28;20039;-75
2022/04/24 10:49:47;;;;;;;0.10;0.10;;;;;;;;;;5074515;28;20042;-75
2022/04/24 10:52:13;;;;;;;0.05;0.05;;;;;;;;;;5081330;28;20111;-76
2022/04/24 10:54:41;;;;;;;0.10;0.10;;;;;;;;;;5065335;28;20048;-75
2022/04/24 10:57:21;;;;;;;0.10;0.10;;;;;;;;;;5075237;28;20051;-74
2022/04/24 10:59:48;;;;;;;0.10;0.10;;;;;;;;;;5058909;28;20028;-75
2022/04/24 11:02:20;;;;;;;0.15;0.15;;;;;;;;;;5082388;28;20119;-75
2022/04/24 11:04:46;;;;;;;0.10;0.10;;;;;;;;;;5082367;28;20032;-75
2022/04/24 11:07:20;;;;;;;0.10;0.10;;;;;;;;;;5074474;28;20025;-75
2022/04/24 11:09:46;;;;;;;0.10;0.10;;;;;;;;;;5059922;28;20020;-75
2022/04/24 11:12:12;;;;;;;0.10;0.10;;;;;;;;;;5082936;28;20029;-76
2022/04/24 11:14:38;;;;;;;0.10;0.10;;;;;;;;;;5082445;28;20081;-76
2022/04/24 11:17:05;;;;;;;0.10;0.10;;;;;;;;;;5073874;28;20032;-75
2022/04/24 11:19:32;;;;;;;0.10;0.10;;;;;;;;;;5086870;28;20027;-75
2022/04/24 11:21:59;;;;;;;0.10;0.10;;;;;;;;;;5076904;28;20120;-75
2022/04/24 11:24:26;;;;;;;0.10;0.10;;;;;;;;;;5080216;28;20416;-76
2022/04/24 11:26:52;;;;;;;0.10;0.10;;;;;;;;;;5083502;28;20028;-75
2022/04/24 11:29:22;;;;;;;0.10;0.10;;;;;;;;;;5073446;28;20017;-76
2022/04/24 11:31:49;;;;;;;0.03;0.03;;;;;;;;;;5083713;28;20024;-76
2022/04/24 11:34:18;;;;;;;0.13;0.13;;;;;;;;;;5080550;28;20044;-76
2022/04/24 11:36:44;;;;;;;0.10;0.10;;;;;;;;;;5081711;28;20024;-75
2022/04/24 11:39:10;;;;;;;0.10;0.10;;;;;;;;;;5074558;28;20096;-75
2022/04/24 11:41:36;;;;;;;0.10;0.10;;;;;;;;;;5085295;28;20040;-75
2022/04/24 11:44:03;;;;;;;0.10;0.10;;;;;;;;;;5077231;28;20027;-75
2022/04/24 11:52:02;;;;;;;0.10;0.10;;;;;;;;;;5072027;28;20523;-75
2022/04/24 11:54:29;;;;;;;0.10;0.10;;;;;;;;;;5069609;28;20431;-74
2022/04/24 11:56:55;;;;;;;0.10;0.10;;;;;;;;;;5070003;28;20051;-75
2022/04/24 11:59:22;;;;;;;0.10;0.10;;;;;;;;;;5085152;28;20028;-75
2022/04/24 12:01:58;;;;;;;0.10;0.10;;;;;;;;;;5073717;28;20407;-75
2022/04/24 12:04:28;;;;;;;0.10;0.10;;;;;;;;;;5078686;28;20016;-75
2022/04/24 12:07:05;;;;;;;0.10;0.10;;;;;;;;;;5082949;28;20110;-74
2022/04/24 12:09:31;;;;;;;1.75;1.70;;;;;;;;;;5073165;28;20033;-75
2022/04/24 12:12:16;;;;;;;0.10;0.10;;;;;;;;;;5082812;28;20131;-76
2022/04/24 12:14:48;;;;;;;0.35;0.35;;;;;;;;;;5074996;28;20021;-75
2022/04/24 12:17:14;;;;;;;0.10;0.10;;;;;;;;;;5086776;28;20032;-76
2022/04/24 12:19:41;;;;;;;0.10;0.10;;;;;;;;;;5072681;28;20027;-76
2022/04/24 12:22:11;;;;;;;0.10;0.10;;;;;;;;;;5080454;28;20047;-75
2022/04/24 12:24:38;;;;;;;0.10;0.10;;;;;;;;;;5068643;28;20450;-75
2022/04/24 12:27:04;;;;;;;0.03;0.03;;;;;;;;;;5068904;28;20120;-75
2022/04/24 12:29:38;;;;;;;0.00;0.00;;;;;;;;;;5067918;28;20058;-75
2022/04/24 12:32:12;;;;;;;0.10;0.10;;;;;;;;;;5066711;28;20051;-75
2022/04/24 12:34:38;;;;;;;0.10;0.10;;;;;;;;;;5068649;28;20020;-76
2022/04/24 12:37:04;;;;;;;0.10;0.10;;;;;;;;;;5069631;28;20044;-75
2022/04/24 12:39:32;;;;;;;0.10;0.10;;;;;;;;;;5088487;28;20027;-74
2022/04/24 12:41:58;;;;;;;0.10;0.10;;;;;;;;;;5079504;28;20399;-75
2022/04/24 12:44:25;;;;;;;0.10;0.10;;;;;;;;;;5082968;28;20369;-75
2022/04/24 12:46:51;;;;;;;0.10;0.10;;;;;;;;;;5083429;28;20093;-75
2022/04/24 12:49:28;;;;;;;0.10;0.10;;;;;;;;;;5072260;28;20113;-75
2022/04/24 12:51:54;;;;;;;0.10;0.10;;;;;;;;;;5087678;28;20044;-76
2022/04/24 12:54:20;;;;;;;0.10;0.10;;;;;;;;;;5082002;28;20476;-75
2022/04/24 12:56:45;;;;;;;0.10;0.10;;;;;;;;;;5079029;28;20031;-75
2022/04/24 12:59:12;;;;;;;0.10;0.10;;;;;;;;;;5078085;28;20028;-76
2022/04/24 13:01:39;;;;;;;0.10;0.10;;;;;;;;;;5089298;28;20496;-76
2022/04/24 13:04:06;;;;;;;0.10;0.10;;;;;;;;;;5079055;28;20028;-76
2022/04/24 13:06:32;;;;;;;0.10;0.10;;;;;;;;;;5081792;28;20021;-75
2022/04/24 13:08:58;;;;;;;0.10;0.10;;;;;;;;;;5086118;28;20035;-76
2022/04/24 13:11:25;;;;;;;0.10;0.10;;;;;;;;;;5075868;28;20649;-75
2022/04/24 13:13:52;;;;;;;0.10;0.10;;;;;;;;;;5086325;28;20063;-75
2022/04/24 13:19:03;;;;;;;0.10;0.10;;;;;;;;;;5077624;28;20048;-75
2022/04/24 13:21:29;;;;;;;0.10;0.10;;;;;;;;;;5088791;28;20032;-75
2022/04/24 13:23:55;;;;;;;0.10;0.10;;;;;;;;;;5077397;28;20031;-75
2022/04/24 13:26:25;;;;;;;0.10;0.10;;;;;;;;;;5074708;28;20020;-75
2022/04/24 13:28:51;;;;;;;0.10;0.10;;;;;;;;;;5084816;28;20070;-76
2022/04/24 13:31:17;;;;;;;0.10;0.10;;;;;;;;;;5074736;28;20074;-76
2022/04/24 13:33:43;;;;;;;0.52;0.52;;;;;;;;;;5077042;28;20480;-75
2022/04/24 13:36:10;;;;;;;0.10;0.10;;;;;;;;;;5083471;28;20111;-76
2022/04/24 13:38:37;;;;;;;0.10;0.10;;;;;;;;;;5082257;28;20031;-76
2022/04/24 13:41:05;;;;;;;0.10;0.10;;;;;;;;;;5075679;28;20020;-76
2022/04/24 13:43:32;;;;;;;0.10;0.10;;;;;;;;;;5088663;28;20028;-76
2022/04/24 13:45:59;;;;;;;0.10;0.10;;;;;;;;;;5078598;28;20016;-75
2022/04/24 13:48:26;;;;;;;0.10;0.10;;;;;;;;;;5081352;28;20041;-75
2022/04/24 13:50:54;;;;;;;0.10;0.10;;;;;;;;;;5071256;28;20021;-75
2022/04/24 13:53:20;;;;;;;0.10;0.10;;;;;;;;;;5074622;28;20127;-76
2022/04/24 13:55:46;;;;;;;0.10;0.10;;;;;;;;;;5086196;28;20013;-76
2022/04/24 13:58:14;;;;;;;0.10;0.10;;;;;;;;;;5079213;28;20039;-75
2022/04/24 14:00:42;;;;;;;0.10;0.10;;;;;;;;;;5078705;28;20025;-75
2022/04/24 14:03:08;;;;;;;0.08;0.08;;;;;;;;;;5087820;28;20027;-75
2022/04/24 14:05:34;;;;;;;0.10;0.10;;;;;;;;;;5073585;28;20053;-75
2022/04/24 14:08:00;;;;;;;0.10;0.10;;;;;;;;;;5084056;28;20037;-75
2022/04/24 14:10:26;;;;;;;0.10;0.10;;;;;;;;;;5081689;28;20124;-75
2022/04/24 14:12:52;;;;;;;0.10;0.10;;;;;;;;;;5077921;28;20048;-75
2022/04/24 14:15:22;;;;;;;0.10;0.10;;;;;;;;;;5086602;28;20066;-75
2022/04/24 14:17:48;;;;;;;0.10;0.10;;;;;;;;;;5075373;28;20016;-75
2022/04/24 14:20:14;;;;;;;0.10;0.10;;;;;;;;;;5083019;28;20036;-75
2022/04/24 14:22:41;;;;;;;0.10;0.10;;;;;;;;;;5083964;28;20039;-77
2022/04/24 14:25:07;;;;;;;0.10;0.10;;;;;;;;;;5075532;28;20040;-76
2022/04/24 14:27:33;;;;;;;0.10;0.10;;;;;;;;;;5087752;28;20074;-75
2022/04/24 14:29:59;;;;;;;0.10;0.10;;;;;;;;;;5076558;28;20043;-76
2022/04/24 14:32:26;;;;;;;0.10;0.10;;;;;;;;;;5084272;28;20059;-76
2022/04/24 14:34:52;;;;;;;0.10;0.10;;;;;;;;;;5077682;28;20400;-76
2022/04/24 14:37:18;;;;;;;0.10;0.10;;;;;;;;;;5087572;28;20099;-76
2022/04/24 14:39:44;;;;;;;0.10;0.10;;;;;;;;;;5074489;28;20019;-76
2022/04/24 14:42:10;;;;;;;0.10;0.10;;;;;;;;;;5082181;28;20115;-76
2022/04/24 14:44:36;;;;;;;0.10;0.10;;;;;;;;;;5082326;28;20031;-76
2022/04/24 14:58:03;;;;;;;0.00;0.00;;;;;;;;;;5077739;28;20077;-76
2022/04/24 15:00:30;;;;;;;0.10;0.10;;;;;;;;;;5079870;28;20025;-76
2022/04/24 15:02:56;;;;;;;0.10;0.10;;;;;;;;;;5083771;28;20564;-77